createdAt,value
2017-04-29T00:00:24.209Z,0
2017-04-29T00:01:23.991Z,0
2017-04-29T00:02:23.378Z,0
2017-04-29T00:03:24.041Z,0
2017-04-29T00:04:24.056Z,0
2017-04-29T00:05:24.335Z,0
2017-04-29T00:06:23.789Z,0
2017-04-29T00:07:24.144Z,0
2017-04-29T00:08:24.167Z,0
2017-04-29T00:09:23.881Z,0
2017-04-29T00:10:24.155Z,0
2017-04-29T00:11:24.243Z,0
2017-04-29T00:12:23.954Z,0
2017-04-29T00:13:23.365Z,0
2017-04-29T00:14:24.008Z,0
2017-04-29T00:15:24.604Z,0
2017-04-29T00:16:24.062Z,0
2017-04-29T00:17:24.087Z,0
2017-04-29T00:18:24.428Z,0
2017-04-29T00:19:24.456Z,0
2017-04-29T00:20:24.101Z,0
2017-04-29T00:21:23.878Z,0
2017-04-29T00:22:24.557Z,0
2017-04-29T00:23:23.945Z,0
2017-04-29T00:24:24.583Z,0
2017-04-29T00:25:24.871Z,0
2017-04-29T00:26:24.321Z,0
2017-04-29T00:27:24.666Z,0
2017-04-29T00:28:24.690Z,0
2017-04-29T00:29:24.716Z,0
2017-04-29T00:30:24.743Z,0
2017-04-29T00:31:24.149Z,0
2017-04-29T00:32:24.481Z,0
2017-04-29T00:33:24.513Z,0
2017-04-29T00:34:24.847Z,0
2017-04-29T00:35:24.563Z,0
2017-04-29T00:36:24.584Z,0
2017-04-29T00:37:24.613Z,0
2017-04-29T00:38:24.634Z,0
2017-04-29T00:39:24.668Z,0
2017-04-29T00:40:24.384Z,0
2017-04-29T00:41:25.034Z,0
2017-04-29T00:42:24.428Z,0
2017-04-29T00:43:25.087Z,0
2017-04-29T00:44:25.098Z,0
2017-04-29T00:45:24.847Z,0
2017-04-29T00:46:25.165Z,0
2017-04-29T00:47:24.874Z,0
2017-04-29T00:48:24.592Z,0
2017-04-29T00:49:25.248Z,0
2017-04-29T00:50:25.276Z,0
2017-04-29T00:51:25.300Z,0
2017-04-29T00:52:25.008Z,0
2017-04-29T00:53:25.041Z,0
2017-04-29T00:54:25.371Z,0
2017-04-29T00:55:25.398Z,0
2017-04-29T00:56:25.123Z,0
2017-04-29T00:57:25.461Z,0
2017-04-29T00:58:25.164Z,0
2017-04-29T00:59:25.190Z,0
2017-04-29T01:00:25.216Z,0
2017-04-29T01:01:25.807Z,0
2017-04-29T01:02:25.283Z,0
2017-04-29T01:03:25.300Z,0
2017-04-29T01:04:25.642Z,0
2017-04-29T01:05:25.661Z,0
2017-04-29T01:06:25.936Z,0
2017-04-29T01:07:25.717Z,0
2017-04-29T01:08:25.123Z,0
2017-04-29T01:09:25.760Z,0
2017-04-29T01:10:25.790Z,0
2017-04-29T01:11:25.758Z,0
2017-04-29T01:12:25.527Z,0
2017-04-29T01:13:25.877Z,0
2017-04-29T01:14:25.901Z,0
2017-04-29T01:15:25.303Z,0
2017-04-29T01:16:25.894Z,0
2017-04-29T01:17:25.979Z,0
2017-04-29T01:18:26.005Z,0
2017-04-29T01:19:25.410Z,0
2017-04-29T01:20:26.050Z,0
2017-04-29T01:21:26.014Z,0
2017-04-29T01:22:25.786Z,0
2017-04-29T01:23:25.820Z,0
2017-04-29T01:24:26.163Z,0
2017-04-29T01:25:25.557Z,0
2017-04-29T01:26:25.838Z,0
2017-04-29T01:27:25.914Z,0
2017-04-29T01:28:25.956Z,0
2017-04-29T01:29:26.293Z,0
2017-04-29T01:30:26.313Z,0
2017-04-29T01:31:26.589Z,0
2017-04-29T01:32:25.739Z,0
2017-04-29T01:33:26.080Z,0
2017-04-29T01:34:26.108Z,0
2017-04-29T01:35:25.812Z,0
2017-04-29T01:36:26.725Z,0
2017-04-29T01:37:26.186Z,0
2017-04-29T01:38:26.520Z,0
2017-04-29T01:39:26.560Z,0
2017-04-29T01:40:26.265Z,0
2017-04-29T01:41:26.534Z,0
2017-04-29T01:42:26.319Z,0
2017-04-29T01:43:26.031Z,0
2017-04-29T01:44:26.677Z,0
2017-04-29T01:45:26.708Z,0
2017-04-29T01:46:26.677Z,0
2017-04-29T01:47:26.758Z,0
2017-04-29T01:48:26.788Z,0
2017-04-29T01:49:26.187Z,0
2017-04-29T01:50:26.840Z,0
2017-04-29T01:51:26.801Z,0
2017-04-29T01:52:26.893Z,0
2017-04-29T01:53:26.598Z,0
2017-04-29T01:54:26.939Z,0
2017-04-29T01:55:26.976Z,0
2017-04-29T01:56:26.928Z,0
2017-04-29T01:57:26.393Z,0
2017-04-29T01:58:26.732Z,0
2017-04-29T01:59:27.063Z,0
2017-04-29T02:00:26.778Z,0
2017-04-29T02:01:26.748Z,0
2017-04-29T02:02:26.533Z,0
2017-04-29T02:03:26.550Z,0
2017-04-29T02:04:26.885Z,0
2017-04-29T02:05:26.602Z,0
2017-04-29T02:06:26.876Z,0
2017-04-29T02:07:27.277Z,0
2017-04-29T02:08:26.686Z,0
2017-04-29T02:09:27.326Z,0
2017-04-29T02:10:27.348Z,0
2017-04-29T02:11:27.637Z,0
2017-04-29T02:12:27.409Z,0
2017-04-29T02:13:27.119Z,0
2017-04-29T02:14:27.145Z,0
2017-04-29T02:15:27.175Z,0
2017-04-29T02:16:27.139Z,0
2017-04-29T02:17:26.915Z,0
2017-04-29T02:18:27.569Z,0
2017-04-29T02:19:27.279Z,0
2017-04-29T02:20:27.618Z,0
2017-04-29T02:21:27.583Z,0
2017-04-29T02:22:27.361Z,0
2017-04-29T02:23:27.378Z,0
2017-04-29T02:24:27.723Z,0
2017-04-29T02:25:27.435Z,0
2017-04-29T02:26:27.707Z,0
2017-04-29T02:27:27.492Z,0
2017-04-29T02:28:27.509Z,0
2017-04-29T02:29:27.542Z,0
2017-04-29T02:30:27.570Z,0
2017-04-29T02:31:28.154Z,0
2017-04-29T02:32:27.931Z,0
2017-04-29T02:33:27.633Z,0
2017-04-29T02:34:27.972Z,0
2017-04-29T02:35:28.005Z,0
2017-04-29T02:36:27.722Z,0
2017-04-29T02:37:27.731Z,0
2017-04-29T02:38:27.773Z,0
2017-04-29T02:39:28.140Z,0
2017-04-29T02:40:27.827Z,0
2017-04-29T02:41:27.843Z,0
2017-04-29T02:42:27.869Z,0
2017-04-29T02:43:28.211Z,0
2017-04-29T02:44:28.262Z,0
2017-04-29T02:45:27.950Z,0
2017-04-29T02:46:27.661Z,0
2017-04-29T02:47:28.000Z,0
2017-04-29T02:48:28.024Z,0
2017-04-29T02:49:28.057Z,0
2017-04-29T02:50:28.085Z,0
2017-04-29T02:51:28.106Z,0
2017-04-29T02:52:28.131Z,0
2017-04-29T02:53:28.463Z,0
2017-04-29T02:54:28.496Z,0
2017-04-29T02:55:27.896Z,0
2017-04-29T02:56:28.236Z,0
2017-04-29T02:57:28.821Z,0
2017-04-29T02:58:28.604Z,0
2017-04-29T02:59:28.301Z,0
2017-04-29T03:00:28.023Z,0
2017-04-29T03:01:28.369Z,0
2017-04-29T03:02:28.946Z,0
2017-04-29T03:03:28.724Z,0
2017-04-29T03:04:28.756Z,0
2017-04-29T03:05:28.777Z,0
2017-04-29T03:06:28.801Z,0
2017-04-29T03:07:29.080Z,0
2017-04-29T03:08:28.549Z,0
2017-04-29T03:09:28.562Z,0
2017-04-29T03:10:27.972Z,0
2017-04-29T03:11:28.623Z,0
2017-04-29T03:12:28.898Z,0
2017-04-29T03:13:28.670Z,0
2017-04-29T03:14:29.017Z,0
2017-04-29T03:15:29.036Z,0
2017-04-29T03:16:29.082Z,0
2017-04-29T03:17:29.336Z,0
2017-04-29T03:18:28.490Z,0
2017-04-29T03:19:28.832Z,0
2017-04-29T03:20:29.163Z,0
2017-04-29T03:21:28.876Z,0
2017-04-29T03:22:29.164Z,0
2017-04-29T03:23:28.931Z,0
2017-04-29T03:24:28.962Z,0
2017-04-29T03:25:29.292Z,0
2017-04-29T03:26:29.317Z,0
2017-04-29T03:27:29.600Z,0
2017-04-29T03:28:29.056Z,0
2017-04-29T03:29:28.770Z,0
2017-04-29T03:30:29.419Z,0
2017-04-29T03:31:29.438Z,0
2017-04-29T03:32:29.725Z,0
2017-04-29T03:33:28.876Z,0
2017-04-29T03:34:29.219Z,0
2017-04-29T03:35:29.549Z,0
2017-04-29T03:36:29.262Z,0
2017-04-29T03:37:29.538Z,0
2017-04-29T03:38:29.629Z,0
2017-04-29T03:39:29.349Z,0
2017-04-29T03:40:29.367Z,0
2017-04-29T03:41:29.392Z,0
2017-04-29T03:42:29.676Z,0
2017-04-29T03:43:29.760Z,0
2017-04-29T03:44:29.481Z,0
2017-04-29T03:45:29.497Z,0
2017-04-29T03:46:29.833Z,0
2017-04-29T03:47:29.487Z,0
2017-04-29T03:48:29.581Z,0
2017-04-29T03:49:29.608Z,0
2017-04-29T03:50:29.938Z,0
2017-04-29T03:51:29.967Z,0
2017-04-29T03:52:29.299Z,4
2017-04-29T03:53:30.029Z,4
2017-04-29T03:54:29.417Z,0
2017-04-29T03:55:29.758Z,4
2017-04-29T03:56:30.098Z,4
2017-04-29T03:57:30.055Z,4
2017-04-29T03:58:29.519Z,4
2017-04-29T03:59:30.169Z,4
2017-04-29T04:00:29.879Z,8
2017-04-29T04:01:29.906Z,8
2017-04-29T04:02:30.495Z,8
2017-04-29T04:03:29.964Z,8
2017-04-29T04:04:29.981Z,12
2017-04-29T04:05:30.319Z,12
2017-04-29T04:06:30.042Z,16
2017-04-29T04:07:30.630Z,16
2017-04-29T04:08:30.407Z,20
2017-04-29T04:09:30.115Z,24
2017-04-29T04:10:30.460Z,24
2017-04-29T04:11:30.477Z,28
2017-04-29T04:12:30.762Z,28
2017-04-29T04:13:30.210Z,32
2017-04-29T04:14:30.243Z,40
2017-04-29T04:15:30.581Z,44
2017-04-29T04:16:30.281Z,44
2017-04-29T04:17:30.889Z,48
2017-04-29T04:18:30.351Z,56
2017-04-29T04:19:30.691Z,56
2017-04-29T04:20:30.708Z,64
2017-04-29T04:21:30.113Z,68
2017-04-29T04:22:30.381Z,72
2017-04-29T04:23:30.783Z,76
2017-04-29T04:24:30.496Z,84
2017-04-29T04:25:30.836Z,84
2017-04-29T04:26:30.861Z,92
2017-04-29T04:27:31.139Z,96
2017-04-29T04:28:30.914Z,104
2017-04-29T04:29:30.318Z,108
2017-04-29T04:30:30.964Z,116
2017-04-29T04:31:30.984Z,116
2017-04-29T04:32:31.268Z,128
2017-04-29T04:33:30.731Z,128
2017-04-29T04:34:31.070Z,136
2017-04-29T04:35:31.095Z,144
2017-04-29T04:36:30.803Z,152
2017-04-29T04:37:31.087Z,160
2017-04-29T04:38:30.849Z,168
2017-04-29T04:39:31.191Z,184
2017-04-29T04:40:30.906Z,196
2017-04-29T04:41:31.249Z,212
2017-04-29T04:42:31.524Z,220
2017-04-29T04:43:31.309Z,228
2017-04-29T04:44:31.006Z,236
2017-04-29T04:45:31.351Z,252
2017-04-29T04:46:31.061Z,268
2017-04-29T04:47:31.652Z,284
2017-04-29T04:48:31.416Z,296
2017-04-29T04:49:31.149Z,312
2017-04-29T04:50:31.479Z,324
2017-04-29T04:51:31.503Z,340
2017-04-29T04:52:31.776Z,352
2017-04-29T04:53:31.553Z,352
2017-04-29T04:54:31.577Z,364
2017-04-29T04:55:31.602Z,372
2017-04-29T04:56:31.635Z,380
2017-04-29T04:57:31.591Z,380
2017-04-29T04:58:31.380Z,388
2017-04-29T04:59:31.396Z,384
2017-04-29T05:00:31.724Z,388
2017-04-29T05:01:31.451Z,400
2017-04-29T05:02:31.726Z,416
2017-04-29T05:03:31.824Z,424
2017-04-29T05:04:31.836Z,436
2017-04-29T05:05:31.539Z,440
2017-04-29T05:06:31.894Z,452
2017-04-29T05:07:32.163Z,464
2017-04-29T05:08:31.945Z,476
2017-04-29T05:09:31.340Z,492
2017-04-29T05:10:32.002Z,496
2017-04-29T05:11:31.698Z,500
2017-04-29T05:12:32.294Z,512
2017-04-29T05:13:31.755Z,528
2017-04-29T05:14:32.144Z,548
2017-04-29T05:15:32.117Z,560
2017-04-29T05:16:31.833Z,564
2017-04-29T05:17:32.126Z,556
2017-04-29T05:18:31.883Z,544
2017-04-29T05:19:32.228Z,536
2017-04-29T05:20:32.248Z,528
2017-04-29T05:21:32.281Z,516
2017-04-29T05:22:32.549Z,500
2017-04-29T05:23:31.386Z,488
2017-04-29T05:24:32.048Z,460
2017-04-29T05:25:32.385Z,444
2017-04-29T05:26:32.089Z,444
2017-04-29T05:27:32.681Z,448
2017-04-29T05:28:32.454Z,464
2017-04-29T05:29:32.177Z,476
2017-04-29T05:30:32.199Z,484
2017-04-29T05:31:31.909Z,488
2017-04-29T05:32:32.206Z,492
2017-04-29T05:33:32.277Z,504
2017-04-29T05:34:32.601Z,508
2017-04-29T05:35:32.640Z,492
2017-04-29T05:36:32.040Z,484
2017-04-29T05:37:32.939Z,484
2017-04-29T05:38:32.412Z,488
2017-04-29T05:39:32.429Z,484
2017-04-29T05:40:32.465Z,476
2017-04-29T05:41:32.496Z,468
2017-04-29T05:42:32.510Z,468
2017-04-29T05:43:32.846Z,476
2017-04-29T05:44:32.882Z,480
2017-04-29T05:45:32.574Z,480
2017-04-29T05:46:32.612Z,488
2017-04-29T05:47:32.637Z,496
2017-04-29T05:48:32.662Z,500
2017-04-29T05:49:32.695Z,508
2017-04-29T05:50:32.410Z,516
2017-04-29T05:51:33.059Z,524
2017-04-29T05:52:33.085Z,528
2017-04-29T05:53:32.805Z,548
2017-04-29T05:54:32.203Z,556
2017-04-29T05:55:33.151Z,564
2017-04-29T05:56:33.192Z,568
2017-04-29T05:57:32.900Z,572
2017-04-29T05:58:33.238Z,596
2017-04-29T05:59:32.953Z,588
2017-04-29T06:00:33.289Z,596
2017-04-29T06:01:33.000Z,608
2017-04-29T06:02:33.028Z,636
2017-04-29T06:03:33.061Z,644
2017-04-29T06:04:33.418Z,636
2017-04-29T06:05:33.111Z,648
2017-04-29T06:06:33.136Z,656
2017-04-29T06:07:33.485Z,672
2017-04-29T06:08:33.506Z,700
2017-04-29T06:09:33.526Z,708
2017-04-29T06:10:33.549Z,720
2017-04-29T06:11:33.571Z,720
2017-04-29T06:12:33.604Z,728
2017-04-29T06:13:33.632Z,736
2017-04-29T06:14:33.659Z,744
2017-04-29T06:15:33.062Z,752
2017-04-29T06:16:33.711Z,756
2017-04-29T06:17:33.419Z,756
2017-04-29T06:18:34.021Z,756
2017-04-29T06:19:33.474Z,760
2017-04-29T06:20:33.812Z,760
2017-04-29T06:21:33.541Z,764
2017-04-29T06:22:33.867Z,768
2017-04-29T06:23:34.141Z,772
2017-04-29T06:24:33.925Z,780
2017-04-29T06:25:33.947Z,788
2017-04-29T06:26:33.669Z,792
2017-04-29T06:27:33.995Z,792
2017-04-29T06:28:33.968Z,800
2017-04-29T06:29:34.057Z,804
2017-04-29T06:30:34.078Z,808
2017-04-29T06:31:34.092Z,816
2017-04-29T06:32:34.131Z,824
2017-04-29T06:33:34.409Z,828
2017-04-29T06:34:34.181Z,840
2017-04-29T06:35:33.898Z,848
2017-04-29T06:36:33.926Z,856
2017-04-29T06:37:34.267Z,864
2017-04-29T06:38:34.224Z,880
2017-04-29T06:39:34.001Z,888
2017-04-29T06:40:34.341Z,904
2017-04-29T06:41:34.053Z,920
2017-04-29T06:42:34.395Z,940
2017-04-29T06:43:34.358Z,968
2017-04-29T06:44:34.133Z,1008
2017-04-29T06:45:34.481Z,1060
2017-04-29T06:46:34.500Z,1116
2017-04-29T06:47:34.214Z,1184
2017-04-29T06:48:34.809Z,1256
2017-04-29T06:49:34.597Z,1316
2017-04-29T06:50:33.980Z,1360
2017-04-29T06:51:34.323Z,1384
2017-04-29T06:52:34.655Z,1360
2017-04-29T06:53:34.943Z,1304
2017-04-29T06:54:34.403Z,1288
2017-04-29T06:55:34.109Z,1248
2017-04-29T06:56:34.138Z,1236
2017-04-29T06:57:34.482Z,1252
2017-04-29T06:58:34.442Z,1284
2017-04-29T06:59:34.530Z,1304
2017-04-29T07:00:34.872Z,1304
2017-04-29T07:01:34.586Z,1312
2017-04-29T07:02:34.633Z,1336
2017-04-29T07:03:35.201Z,1360
2017-04-29T07:04:34.967Z,1400
2017-04-29T07:05:34.692Z,1452
2017-04-29T07:06:34.729Z,1524
2017-04-29T07:07:35.075Z,1588
2017-04-29T07:08:34.466Z,1612
2017-04-29T07:09:34.794Z,1600
2017-04-29T07:10:34.812Z,1576
2017-04-29T07:11:35.163Z,1560
2017-04-29T07:12:34.567Z,1572
2017-04-29T07:13:34.591Z,1576
2017-04-29T07:14:34.935Z,1492
2017-04-29T07:15:35.267Z,1360
2017-04-29T07:16:35.012Z,1268
2017-04-29T07:17:35.323Z,1184
2017-04-29T07:18:35.042Z,1160
2017-04-29T07:19:35.375Z,1116
2017-04-29T07:20:35.404Z,1092
2017-04-29T07:21:35.109Z,1024
2017-04-29T07:22:35.457Z,1032
2017-04-29T07:23:35.486Z,1032
2017-04-29T07:24:34.883Z,1040
2017-04-29T07:25:35.218Z,1036
2017-04-29T07:26:35.568Z,1036
2017-04-29T07:27:34.965Z,1040
2017-04-29T07:28:35.298Z,1044
2017-04-29T07:29:35.897Z,1048
2017-04-29T07:30:35.671Z,1052
2017-04-29T07:31:35.691Z,1060
2017-04-29T07:32:35.404Z,1064
2017-04-29T07:33:35.441Z,1072
2017-04-29T07:34:36.026Z,1076
2017-04-29T07:35:35.816Z,1084
2017-04-29T07:36:35.828Z,1092
2017-04-29T07:37:35.861Z,1096
2017-04-29T07:38:35.569Z,1096
2017-04-29T07:39:35.832Z,1096
2017-04-29T07:40:35.622Z,1096
2017-04-29T07:41:35.660Z,1092
2017-04-29T07:42:35.368Z,1096
2017-04-29T07:43:36.030Z,1100
2017-04-29T07:44:35.974Z,1104
2017-04-29T07:45:35.755Z,1100
2017-04-29T07:46:36.086Z,1108
2017-04-29T07:47:36.124Z,1108
2017-04-29T07:48:35.840Z,1108
2017-04-29T07:49:36.114Z,1108
2017-04-29T07:50:35.890Z,1108
2017-04-29T07:51:36.231Z,1108
2017-04-29T07:52:35.944Z,1116
2017-04-29T07:53:36.289Z,1116
2017-04-29T07:54:35.943Z,1124
2017-04-29T07:55:35.703Z,1128
2017-04-29T07:56:36.358Z,1140
2017-04-29T07:57:36.380Z,1144
2017-04-29T07:58:36.400Z,1148
2017-04-29T07:59:36.692Z,1156
2017-04-29T08:00:36.146Z,1164
2017-04-29T08:01:36.486Z,1176
2017-04-29T08:02:36.512Z,1184
2017-04-29T08:03:36.232Z,1188
2017-04-29T08:04:36.514Z,1192
2017-04-29T08:05:36.598Z,1196
2017-04-29T08:06:36.631Z,1204
2017-04-29T08:07:35.716Z,1220
2017-04-29T08:08:36.692Z,1240
2017-04-29T08:09:36.644Z,1296
2017-04-29T08:10:36.733Z,1356
2017-04-29T08:11:36.763Z,1384
2017-04-29T08:12:36.785Z,1412
2017-04-29T08:13:36.194Z,1448
2017-04-29T08:14:37.088Z,1480
2017-04-29T08:15:36.870Z,1524
2017-04-29T08:16:36.583Z,1592
2017-04-29T08:17:36.917Z,1636
2017-04-29T08:18:36.940Z,1696
2017-04-29T08:19:36.912Z,1716
2017-04-29T08:20:36.689Z,1692
2017-04-29T08:21:37.029Z,1592
2017-04-29T08:22:36.745Z,1532
2017-04-29T08:23:37.075Z,1484
2017-04-29T08:24:37.357Z,1468
2017-04-29T08:25:37.133Z,1528
2017-04-29T08:26:36.846Z,1664
2017-04-29T08:27:36.562Z,1980
2017-04-29T08:28:36.903Z,2392
2017-04-29T08:29:37.493Z,2556
2017-04-29T08:30:37.264Z,2760
2017-04-29T08:31:37.298Z,2900
2017-04-29T08:32:36.690Z,2892
2017-04-29T08:33:37.351Z,2924
2017-04-29T08:34:37.623Z,2768
2017-04-29T08:35:37.404Z,2648
2017-04-29T08:36:37.425Z,2752
2017-04-29T08:37:36.834Z,2868
2017-04-29T08:38:37.478Z,2972
2017-04-29T08:39:36.887Z,3168
2017-04-29T08:40:37.531Z,3080
2017-04-29T08:41:37.548Z,3100
2017-04-29T08:42:36.966Z,3080
2017-04-29T08:43:37.619Z,3120
2017-04-29T08:44:37.328Z,2676
2017-04-29T08:45:37.660Z,2360
2017-04-29T08:46:37.693Z,2340
2017-04-29T08:47:37.410Z,2252
2017-04-29T08:48:37.430Z,1964
2017-04-29T08:49:37.463Z,1940
2017-04-29T08:50:37.483Z,1980
2017-04-29T08:51:37.829Z,2004
2017-04-29T08:52:37.541Z,2040
2017-04-29T08:53:37.257Z,2088
2017-04-29T08:54:37.593Z,2120
2017-04-29T08:55:37.968Z,2032
2017-04-29T08:56:37.648Z,1952
2017-04-29T08:57:37.677Z,1816
2017-04-29T08:58:37.705Z,1760
2017-04-29T08:59:38.042Z,1756
2017-04-29T09:00:38.067Z,1844
2017-04-29T09:01:38.095Z,1952
2017-04-29T09:02:37.813Z,2128
2017-04-29T09:03:38.154Z,2344
2017-04-29T09:04:37.878Z,2432
2017-04-29T09:05:37.573Z,2468
2017-04-29T09:06:37.919Z,2404
2017-04-29T09:07:38.256Z,2292
2017-04-29T09:08:38.284Z,2108
2017-04-29T09:09:38.309Z,1828
2017-04-29T09:10:38.023Z,1588
2017-04-29T09:11:38.360Z,1420
2017-04-29T09:12:38.397Z,1316
2017-04-29T09:13:38.112Z,1244
2017-04-29T09:14:38.136Z,1232
2017-04-29T09:15:38.413Z,1236
2017-04-29T09:16:37.875Z,1268
2017-04-29T09:17:38.221Z,1280
2017-04-29T09:18:38.245Z,1308
2017-04-29T09:19:38.582Z,1340
2017-04-29T09:20:38.850Z,1400
2017-04-29T09:21:38.323Z,1444
2017-04-29T09:22:38.659Z,1448
2017-04-29T09:23:38.692Z,1476
2017-04-29T09:24:38.400Z,1512
2017-04-29T09:25:38.682Z,1540
2017-04-29T09:26:38.450Z,1584
2017-04-29T09:27:38.800Z,1556
2017-04-29T09:28:38.513Z,1564
2017-04-29T09:29:38.229Z,1616
2017-04-29T09:30:38.848Z,1688
2017-04-29T09:31:38.893Z,1816
2017-04-29T09:32:38.303Z,1996
2017-04-29T09:33:38.648Z,2208
2017-04-29T09:34:38.993Z,2400
2017-04-29T09:35:39.261Z,2504
2017-04-29T09:36:38.095Z,2532
2017-04-29T09:37:39.067Z,2552
2017-04-29T09:38:38.785Z,2636
2017-04-29T09:39:39.125Z,2716
2017-04-29T09:40:38.765Z,2784
2017-04-29T09:41:38.858Z,2836
2017-04-29T09:42:39.202Z,2860
2017-04-29T09:43:39.231Z,2928
2017-04-29T09:44:39.252Z,3044
2017-04-29T09:45:39.531Z,3156
2017-04-29T09:46:38.685Z,3172
2017-04-29T09:47:39.019Z,3228
2017-04-29T09:48:39.046Z,3388
2017-04-29T09:49:39.072Z,3584
2017-04-29T09:50:38.724Z,3792
2017-04-29T09:51:38.813Z,4016
2017-04-29T09:52:39.471Z,4220
2017-04-29T09:53:38.879Z,4416
2017-04-29T09:54:39.525Z,4568
2017-04-29T09:55:39.196Z,4504
2017-04-29T09:56:39.578Z,4188
2017-04-29T09:57:39.619Z,3880
2017-04-29T09:58:39.323Z,3736
2017-04-29T09:59:39.664Z,3788
2017-04-29T10:00:39.616Z,4008
2017-04-29T10:01:39.084Z,4280
2017-04-29T10:02:39.739Z,4376
2017-04-29T10:03:39.767Z,4420
2017-04-29T10:04:39.507Z,4556
2017-04-29T10:05:41.252Z,4748
2017-04-29T10:06:39.530Z,4712
2017-04-29T10:07:39.926Z,4472
2017-04-29T10:08:39.899Z,4272
2017-04-29T10:09:39.923Z,4212
2017-04-29T10:10:39.888Z,4344
2017-04-29T10:11:39.972Z,4408
2017-04-29T10:12:40.006Z,4352
2017-04-29T10:13:39.418Z,4212
2017-04-29T10:14:39.752Z,4064
2017-04-29T10:15:40.341Z,4084
2017-04-29T10:16:40.116Z,4052
2017-04-29T10:17:40.142Z,4096
2017-04-29T10:18:40.174Z,4356
2017-04-29T10:19:40.219Z,4300
2017-04-29T10:20:40.475Z,4616
2017-04-29T10:21:40.252Z,4860
2017-04-29T10:22:40.273Z,5068
2017-04-29T10:23:39.990Z,5172
2017-04-29T10:24:40.018Z,5256
2017-04-29T10:25:39.736Z,5428
2017-04-29T10:26:39.763Z,5700
2017-04-29T10:27:40.417Z,5908
2017-04-29T10:28:40.122Z,6076
2017-04-29T10:29:40.151Z,6028
2017-04-29T10:30:40.503Z,6144
2017-04-29T10:31:40.216Z,5932
2017-04-29T10:32:40.549Z,6000
2017-04-29T10:33:40.270Z,6344
2017-04-29T10:34:40.309Z,5864
2017-04-29T10:35:40.627Z,5672
2017-04-29T10:36:40.659Z,5540
2017-04-29T10:37:40.381Z,4856
2017-04-29T10:38:40.400Z,4800
2017-04-29T10:39:40.742Z,4472
2017-04-29T10:40:40.458Z,4468
2017-04-29T10:41:40.734Z,4460
2017-04-29T10:42:40.519Z,4464
2017-04-29T10:43:40.848Z,4472
2017-04-29T10:44:40.877Z,4396
2017-04-29T10:45:40.913Z,4220
2017-04-29T10:46:40.866Z,4028
2017-04-29T10:47:40.658Z,3800
2017-04-29T10:48:40.713Z,3588
2017-04-29T10:49:40.390Z,3356
2017-04-29T10:50:40.730Z,3104
2017-04-29T10:51:41.010Z,2948
2017-04-29T10:52:41.108Z,2672
2017-04-29T10:53:40.500Z,2476
2017-04-29T10:54:40.529Z,2324
2017-04-29T10:55:40.581Z,2272
2017-04-29T10:56:41.455Z,2232
2017-04-29T10:57:40.928Z,2252
2017-04-29T10:58:41.256Z,2336
2017-04-29T10:59:40.967Z,2388
2017-04-29T11:00:41.006Z,2444
2017-04-29T11:01:41.279Z,2484
2017-04-29T11:02:41.059Z,2460
2017-04-29T11:03:41.395Z,2436
2017-04-29T11:04:41.428Z,2464
2017-04-29T11:05:40.828Z,2496
2017-04-29T11:06:41.455Z,2548
2017-04-29T11:07:41.199Z,2628
2017-04-29T11:08:40.911Z,2708
2017-04-29T11:09:41.245Z,2852
2017-04-29T11:10:41.281Z,3064
2017-04-29T11:11:41.873Z,3284
2017-04-29T11:12:41.642Z,3512
2017-04-29T11:13:41.666Z,3740
2017-04-29T11:14:41.095Z,3876
2017-04-29T11:15:41.736Z,4048
2017-04-29T11:16:42.036Z,4140
2017-04-29T11:17:41.803Z,4156
2017-04-29T11:18:41.803Z,4216
2017-04-29T11:19:41.513Z,4248
2017-04-29T11:20:41.235Z,4336
2017-04-29T11:21:42.142Z,4408
2017-04-29T11:22:41.603Z,4540
2017-04-29T11:23:41.979Z,4704
2017-04-29T11:24:41.955Z,4760
2017-04-29T11:25:41.992Z,4684
2017-04-29T11:26:41.966Z,4604
2017-04-29T11:27:42.053Z,4468
2017-04-29T11:28:42.076Z,4396
2017-04-29T11:29:42.106Z,4488
2017-04-29T11:30:42.132Z,4700
2017-04-29T11:31:42.100Z,5648
2017-04-29T11:32:42.189Z,5892
2017-04-29T11:33:41.590Z,5252
2017-04-29T11:34:42.234Z,5072
2017-04-29T11:35:42.270Z,4736
2017-04-29T11:36:42.286Z,4680
2017-04-29T11:37:41.696Z,4644
2017-04-29T11:38:42.034Z,4548
2017-04-29T11:39:42.065Z,4460
2017-04-29T11:40:42.095Z,4384
2017-04-29T11:41:42.983Z,4408
2017-04-29T11:42:42.153Z,4384
2017-04-29T11:43:42.176Z,4416
2017-04-29T11:44:42.513Z,4356
2017-04-29T11:45:42.560Z,4236
2017-04-29T11:46:42.504Z,4236
2017-04-29T11:47:42.601Z,4324
2017-04-29T11:48:42.305Z,4472
2017-04-29T11:49:42.647Z,4720
2017-04-29T11:50:42.362Z,5028
2017-04-29T11:51:42.642Z,5356
2017-04-29T11:52:42.733Z,5624
2017-04-29T11:53:42.454Z,5904
2017-04-29T11:54:42.466Z,6212
2017-04-29T11:55:42.498Z,6504
2017-04-29T11:56:43.091Z,6976
2017-04-29T11:57:42.868Z,8164
2017-04-29T11:58:42.901Z,13484
2017-04-29T11:59:42.934Z,26976
2017-04-29T12:00:42.638Z,46656
2017-04-29T12:01:43.235Z,31392
2017-04-29T12:02:43.012Z,33504
2017-04-29T12:03:43.037Z,13732
2017-04-29T12:04:42.782Z,51520
2017-04-29T12:05:43.090Z,7644
2017-04-29T12:06:42.806Z,7160
2017-04-29T12:07:42.832Z,7112
2017-04-29T12:08:43.183Z,7656
2017-04-29T12:09:43.201Z,8388
2017-04-29T12:10:43.222Z,9680
2017-04-29T12:11:42.982Z,13116
2017-04-29T12:12:42.668Z,27072
2017-04-29T12:13:42.993Z,17208
2017-04-29T12:14:43.024Z,15916
2017-04-29T12:15:43.061Z,35264
2017-04-29T12:16:43.087Z,57984
2017-04-29T12:17:42.803Z,32480
2017-04-29T12:18:43.148Z,41728
2017-04-29T12:19:43.483Z,56416
2017-04-29T12:20:43.508Z,61920
2017-04-29T12:21:43.547Z,64288
2017-04-29T12:22:43.846Z,62720
2017-04-29T12:23:43.604Z,65376
2017-04-29T12:24:43.623Z,68384
2017-04-29T12:25:43.345Z,62816
2017-04-29T12:26:43.673Z,21152
2017-04-29T12:27:43.975Z,68352
2017-04-29T12:28:43.459Z,70368
2017-04-29T12:29:43.783Z,69888
2017-04-29T12:30:43.806Z,69664
2017-04-29T12:31:43.833Z,18468
2017-04-29T12:32:45.622Z,19648
2017-04-29T12:33:43.570Z,16388
2017-04-29T12:34:43.304Z,30016
2017-04-29T12:35:43.644Z,35712
2017-04-29T12:36:43.977Z,33728
2017-04-29T12:37:43.382Z,10600
2017-04-29T12:38:44.034Z,11464
2017-04-29T12:39:44.074Z,11476
2017-04-29T12:40:43.473Z,10064
2017-04-29T12:41:44.134Z,10844
2017-04-29T12:42:44.105Z,11668
2017-04-29T12:43:43.890Z,11588
2017-04-29T12:44:44.226Z,12204
2017-04-29T12:45:44.261Z,34656
2017-04-29T12:46:43.965Z,10740
2017-04-29T12:47:44.570Z,8844
2017-04-29T12:48:44.037Z,10572
2017-04-29T12:49:43.751Z,34880
2017-04-29T12:50:44.092Z,40928
2017-04-29T12:51:44.420Z,43712
2017-04-29T12:52:44.722Z,42848
2017-04-29T12:53:44.489Z,42784
2017-04-29T12:54:44.521Z,44960
2017-04-29T12:55:44.550Z,46656
2017-04-29T12:56:44.275Z,47840
2017-04-29T12:57:44.868Z,48224
2017-04-29T12:58:44.655Z,48896
2017-04-29T12:59:44.374Z,47616
2017-04-29T13:00:44.705Z,47232
2017-04-29T13:01:44.736Z,48416
2017-04-29T13:02:45.011Z,44960
2017-04-29T13:03:44.485Z,46848
2017-04-29T13:04:44.823Z,47136
2017-04-29T13:05:44.547Z,34368
2017-04-29T13:06:44.579Z,9564
2017-04-29T13:07:45.172Z,7260
2017-04-29T13:08:44.949Z,6424
2017-04-29T13:09:44.985Z,6328
2017-04-29T13:10:45.023Z,6968
2017-04-29T13:11:45.050Z,7896
2017-04-29T13:12:45.329Z,9176
2017-04-29T13:13:45.106Z,10248
2017-04-29T13:14:44.825Z,11020
2017-04-29T13:15:45.167Z,10152
2017-04-29T13:16:44.887Z,10420
2017-04-29T13:17:44.882Z,23904
2017-04-29T13:18:44.944Z,48512
2017-04-29T13:19:44.977Z,61984
2017-04-29T13:20:45.346Z,61824
2017-04-29T13:21:45.351Z,62336
2017-04-29T13:22:45.315Z,62688
2017-04-29T13:23:45.416Z,61568
2017-04-29T13:24:44.816Z,61184
2017-04-29T13:25:45.165Z,63872
2017-04-29T13:26:45.506Z,62752
2017-04-29T13:27:47.298Z,65120
2017-04-29T13:28:45.568Z,69088
2017-04-29T13:29:45.284Z,70368
2017-04-29T13:30:45.630Z,70016
2017-04-29T13:31:45.670Z,67264
2017-04-29T13:32:45.999Z,63776
2017-04-29T13:33:45.411Z,59936
2017-04-29T13:34:45.116Z,57472
2017-04-29T13:35:45.785Z,55136
2017-04-29T13:36:45.505Z,53664
2017-04-29T13:37:45.535Z,53472
2017-04-29T13:38:45.879Z,52608
2017-04-29T13:39:45.914Z,51712
2017-04-29T13:40:45.949Z,50912
2017-04-29T13:41:45.666Z,52608
2017-04-29T13:42:46.015Z,57952
2017-04-29T13:43:46.042Z,64960
2017-04-29T13:44:46.077Z,67872
2017-04-29T13:45:45.789Z,68096